Time;durP1;ratioP1;P1;durP2;ratioP2;P2;SDS_P1;SDS_P2;PMS_P1;PMS_P2;Temp;Humidity;BMP_temperature;BMP_pressure;BME280_temperature;BME280_humidity;BME280_pressure;Samples;Min_cycle;Max_cycle;Signal;HPM_P1;HPM_P2
2023/07/10 00:01:30;;;;;;;9.50;6.25;;;22.40;99.90;;;;;;4997176;28;20025;-91
2023/07/10 00:03:56;;;;;;;11.73;6.60;;;22.40;99.90;;;;;;4981064;28;20030;-91
2023/07/10 00:06:25;;;;;;;11.80;5.68;;;22.40;99.90;;;;;;4997146;28;20054;-90
2023/07/10 00:08:51;;;;;;;9.60;5.68;;;22.30;99.90;;;;;;4997216;28;20470;-92
2023/07/10 00:11:30;;;;;;;13.30;5.93;;;22.40;99.90;;;;;;4997113;28;20034;-91
2023/07/10 00:14:00;;;;;;;11.90;5.78;;;22.40;99.90;;;;;;5013544;28;20021;-91
2023/07/10 00:16:28;;;;;;;11.15;4.97;;;22.30;99.90;;;;;;4997102;28;20026;-91
2023/07/10 00:18:55;;;;;;;9.60;5.57;;;22.30;99.90;;;;;;5014865;28;20029;-91
2023/07/10 00:21:21;;;;;;;9.15;5.68;;;22.30;99.90;;;;;;5002933;28;20037;-91
2023/07/10 00:23:48;;;;;;;8.57;5.35;;;22.30;99.90;;;;;;5000150;28;20029;-91
2023/07/10 00:26:24;;;;;;;9.73;4.57;;;22.30;99.90;;;;;;4996965;28;20018;-92
2023/07/10 00:28:54;;;;;;;8.02;4.60;;;22.20;99.90;;;;;;4996931;28;20060;-91
2023/07/10 00:31:22;;;;;;;10.65;5.43;;;22.30;99.90;;;;;;4997593;28;20064;-90
2023/07/10 00:33:50;;;;;;;14.35;4.93;;;22.20;99.90;;;;;;5013658;28;20030;-91
2023/07/10 00:36:33;;;;;;;7.20;4.35;;;22.30;99.90;;;;;;4997104;28;20054;-91
2023/07/10 00:39:19;;;;;;;6.55;3.85;;;22.30;99.90;;;;;;5013860;28;20479;-90
2023/07/10 00:41:49;;;;;;;8.23;4.57;;;22.30;99.90;;;;;;5013665;28;20034;-91
2023/07/10 00:44:18;;;;;;;11.82;5.13;;;22.30;99.90;;;;;;5000883;28;20034;-92
2023/07/10 00:46:53;;;;;;;8.65;4.25;;;22.30;99.90;;;;;;5000256;28;20479;-92
2023/07/10 00:49:45;;;;;;;11.65;4.75;;;22.20;99.90;;;;;;4982043;28;20123;-93
2023/07/10 00:52:25;;;;;;;6.75;4.10;;;22.20;99.90;;;;;;4980876;28;20033;-91
2023/07/10 00:54:56;;;;;;;11.80;4.88;;;22.20;99.90;;;;;;4980614;28;20029;-91
2023/07/10 00:57:35;;;;;;;11.00;4.00;;;22.20;99.90;;;;;;4980520;28;20038;-91
2023/07/10 01:00:16;;;;;;;9.15;4.40;;;22.20;99.90;;;;;;4988776;28;20037;-91
2023/07/10 01:02:42;;;;;;;7.60;4.38;;;22.20;99.90;;;;;;5004760;28;20029;-90
2023/07/10 01:05:09;;;;;;;8.52;3.83;;;22.10;99.90;;;;;;4986657;28;20030;-92
2023/07/10 01:07:54;;;;;;;7.50;4.05;;;22.00;99.90;;;;;;4986412;28;20034;-91
2023/07/10 01:10:21;;;;;;;9.88;4.55;;;22.00;99.90;;;;;;5029578;28;20037;-91
2023/07/10 01:12:48;;;;;;;6.90;4.05;;;21.90;99.90;;;;;;5003555;28;20025;-91
2023/07/10 01:15:16;;;;;;;6.70;3.97;;;21.80;99.90;;;;;;5003141;28;20026;-90
2023/07/10 01:17:42;;;;;;;4.50;3.35;;;21.80;99.90;;;;;;5003363;28;20036;-90
2023/07/10 01:20:33;;;;;;;7.38;3.60;;;21.80;99.90;;;;;;5001123;28;20069;-90
2023/07/10 01:23:00;;;;;;;11.68;4.65;;;21.90;99.90;;;;;;4983807;28;20030;-90
2023/07/10 01:25:36;;;;;;;7.00;3.67;;;21.80;99.90;;;;;;4983698;28;20030;-91
2023/07/10 01:28:09;;;;;;;7.25;4.00;;;21.80;99.90;;;;;;4983627;28;20030;-89
2023/07/10 01:30:39;;;;;;;12.77;4.03;;;21.90;99.90;;;;;;5007338;28;20121;-90
2023/07/10 01:33:15;;;;;;;13.00;4.35;;;21.80;99.90;;;;;;5002997;28;20060;-90
2023/07/10 01:35:42;;;;;;;7.15;4.28;;;21.80;99.90;;;;;;5003080;28;20033;-89
2023/07/10 01:38:14;;;;;;;9.32;4.30;;;21.90;99.90;;;;;;5002748;28;20160;-92
2023/07/10 01:40:45;;;;;;;5.72;3.92;;;21.80;99.90;;;;;;4994931;28;20483;-91
2023/07/10 01:43:17;;;;;;;9.80;4.50;;;21.80;99.90;;;;;;4983855;28;20099;-89
2023/07/10 01:45:46;;;;;;;7.80;4.22;;;21.80;99.90;;;;;;4983390;28;20029;-91
2023/07/10 01:48:15;;;;;;;8.80;3.95;;;21.80;99.90;;;;;;4983408;28;20060;-90
2023/07/10 01:50:44;;;;;;;10.85;4.90;;;21.80;99.90;;;;;;4983528;28;20434;-90
2023/07/10 01:53:10;;;;;;;8.00;3.92;;;21.90;99.90;;;;;;4986409;28;20053;-90
2023/07/10 01:55:45;;;;;;;7.55;4.07;;;21.90;99.90;;;;;;4985820;28;20113;-89
2023/07/10 01:58:12;;;;;;;10.18;4.13;;;21.90;99.90;;;;;;5000605;28;20467;-90
2023/07/10 02:00:40;;;;;;;10.65;4.68;;;21.80;99.90;;;;;;4982846;28;20054;-90
2023/07/10 02:03:09;;;;;;;11.95;4.90;;;21.80;99.90;;;;;;4999262;28;20030;-91
2023/07/10 02:05:36;;;;;;;6.10;3.92;;;21.80;99.90;;;;;;4982784;28;20047;-89
2023/07/10 02:08:05;;;;;;;6.07;4.05;;;21.80;99.90;;;;;;4983290;28;20030;-90
2023/07/10 02:10:31;;;;;;;7.63;4.40;;;21.80;99.90;;;;;;4958784;28;20120;-89
2023/07/10 02:12:59;;;;;;;12.80;4.50;;;21.70;99.90;;;;;;4943474;28;20103;-90
2023/07/10 02:15:26;;;;;;;6.28;4.22;;;21.70;99.90;;;;;;4959445;28;20038;-89
2023/07/10 02:17:53;;;;;;;4.55;3.88;;;21.70;99.90;;;;;;4943287;28;20027;-89
2023/07/10 02:20:19;;;;;;;6.78;4.43;;;21.70;99.90;;;;;;4943352;28;20031;-91
2023/07/10 02:22:45;;;;;;;6.80;4.05;;;21.70;99.90;;;;;;4943695;28;20031;-89
2023/07/10 02:25:14;;;;;;;6.30;4.40;;;21.70;99.90;;;;;;4959264;28;20511;-89
2023/07/10 02:27:40;;;;;;;8.32;4.13;;;21.70;99.90;;;;;;4940066;29;20049;-90
2023/07/10 02:30:07;;;;;;;8.27;4.45;;;21.70;99.90;;;;;;4924316;29;20039;-89
2023/07/10 02:32:34;;;;;;;7.97;3.85;;;21.80;99.90;;;;;;4940265;29;20433;-90
2023/07/10 02:35:00;;;;;;;8.88;4.35;;;21.80;99.90;;;;;;4939999;29;20110;-89
2023/07/10 02:37:27;;;;;;;11.32;4.72;;;21.80;99.90;;;;;;4951010;28;20035;-89
2023/07/10 02:39:53;;;;;;;6.60;4.50;;;21.80;99.90;;;;;;4946265;28;20031;-89
2023/07/10 02:42:19;;;;;;;8.35;4.28;;;21.90;99.90;;;;;;4960405;28;20035;-90
2023/07/10 02:44:46;;;;;;;7.15;3.67;;;21.90;99.90;;;;;;4943099;28;20384;-90
2023/07/10 02:47:12;;;;;;;6.65;3.80;;;21.90;99.90;;;;;;4951334;28;20042;-91
2023/07/10 02:49:39;;;;;;;6.72;4.38;;;21.90;99.90;;;;;;4978901;28;20084;-90
2023/07/10 02:52:06;;;;;;;6.57;3.97;;;21.90;99.90;;;;;;4982983;28;20499;-88
2023/07/10 02:54:36;;;;;;;7.85;4.43;;;21.90;99.90;;;;;;4969933;28;20068;-90
2023/07/10 02:57:02;;;;;;;10.60;4.57;;;21.90;99.90;;;;;;4982044;28;20041;-92
2023/07/10 02:59:29;;;;;;;8.63;4.28;;;21.90;99.90;;;;;;4982002;28;20048;-89
2023/07/10 03:01:55;;;;;;;9.65;4.35;;;21.90;99.90;;;;;;4981950;28;20105;-91
2023/07/10 03:04:22;;;;;;;6.07;4.20;;;22.00;99.90;;;;;;4981966;28;20083;-92
2023/07/10 03:06:49;;;;;;;9.63;4.82;;;22.00;99.90;;;;;;4997067;28;20080;-90
2023/07/10 03:09:17;;;;;;;6.43;4.28;;;22.00;99.90;;;;;;4997314;28;20545;-89
2023/07/10 03:11:47;;;;;;;8.55;4.32;;;21.90;99.90;;;;;;4997443;28;20042;-90
2023/07/10 03:14:13;;;;;;;5.90;3.70;;;22.00;99.90;;;;;;4997334;28;20034;-91
2023/07/10 03:16:40;;;;;;;8.68;4.63;;;22.00;99.90;;;;;;4981269;28;20025;-90
2023/07/10 03:19:06;;;;;;;8.55;4.32;;;22.00;99.90;;;;;;4997282;28;20022;-90
2023/07/10 03:21:32;;;;;;;7.38;4.32;;;22.00;99.90;;;;;;4980906;28;20057;-90
2023/07/10 03:24:02;;;;;;;9.70;4.65;;;22.00;99.90;;;;;;4997186;28;20034;-90
2023/07/10 03:26:29;;;;;;;9.43;5.25;;;22.00;99.90;;;;;;4997084;28;20041;-91
2023/07/10 03:29:09;;;;;;;10.38;5.13;;;22.10;99.90;;;;;;4986874;28;20631;-91
2023/07/10 03:31:35;;;;;;;9.55;4.78;;;22.10;99.90;;;;;;4984782;28;20046;-89
2023/07/10 03:34:02;;;;;;;8.38;4.88;;;22.10;99.90;;;;;;4977499;28;20042;-92
2023/07/10 03:36:29;;;;;;;9.52;4.70;;;22.00;99.90;;;;;;4978076;28;20615;-90
2023/07/10 03:38:56;;;;;;;7.22;3.80;;;22.00;99.90;;;;;;4981717;28;20610;-90
2023/07/10 03:41:23;;;;;;;9.32;4.70;;;22.00;99.90;;;;;;4998241;28;20079;-90
2023/07/10 03:43:50;;;;;;;8.80;5.05;;;22.00;99.90;;;;;;4983685;28;20037;-90
2023/07/10 03:46:17;;;;;;;11.45;5.38;;;22.00;99.90;;;;;;5004497;28;20044;-89
2023/07/10 03:48:44;;;;;;;9.50;4.95;;;22.00;99.90;;;;;;4997381;28;20030;-89
2023/07/10 03:51:10;;;;;;;13.43;4.50;;;22.00;99.90;;;;;;5013902;28;20376;-90
2023/07/10 03:53:39;;;;;;;11.45;5.40;;;22.00;99.90;;;;;;5014095;28;20391;-88
2023/07/10 03:56:06;;;;;;;14.60;5.15;;;22.10;99.90;;;;;;5013514;28;20026;-89
2023/07/10 03:58:35;;;;;;;12.05;5.00;;;22.10;99.90;;;;;;4997093;28;20430;-87
2023/07/10 04:01:02;;;;;;;10.38;4.82;;;22.10;99.90;;;;;;4997763;28;20443;-87
2023/07/10 04:03:31;;;;;;;8.65;5.35;;;22.10;99.90;;;;;;4997832;28;20026;-89
2023/07/10 04:06:00;;;;;;;11.88;5.63;;;22.20;99.90;;;;;;5013793;28;20407;-88
2023/07/10 04:08:30;;;;;;;16.92;5.05;;;22.20;99.90;;;;;;4998866;28;20110;-90
2023/07/10 04:11:03;;;;;;;7.15;4.50;;;22.30;99.90;;;;;;5002457;28;20484;-90
2023/07/10 04:13:30;;;;;;;7.78;4.82;;;22.30;99.90;;;;;;4999936;28;20395;-89
2023/07/10 04:15:59;;;;;;;9.27;5.60;;;22.30;99.90;;;;;;4997934;28;20030;-88
2023/07/10 04:18:36;;;;;;;7.72;4.57;;;22.40;99.90;;;;;;5013263;28;20038;-89
2023/07/10 04:21:10;;;;;;;10.13;5.40;;;22.40;99.90;;;;;;4996999;28;20477;-91
2023/07/10 04:23:40;;;;;;;8.82;4.90;;;22.30;99.90;;;;;;5014728;28;20030;-89
2023/07/10 04:26:12;;;;;;;12.60;5.47;;;22.40;99.90;;;;;;4996908;28;20072;-89
2023/07/10 04:28:38;;;;;;;14.10;6.25;;;22.40;99.90;;;;;;4996882;28;20033;-88
2023/07/10 04:31:04;;;;;;;11.48;5.63;;;22.50;99.90;;;;;;4996803;28;20129;-89
2023/07/10 04:33:31;;;;;;;15.20;6.32;;;22.70;99.90;;;;;;4997437;28;20028;-89
2023/07/10 04:35:58;;;;;;;9.50;5.07;;;22.70;99.90;;;;;;5001311;28;20080;-90
2023/07/10 04:38:28;;;;;;;9.25;5.45;;;22.80;99.90;;;;;;4990317;28;20021;-89
2023/07/10 04:41:06;;;;;;;10.77;5.25;;;22.90;99.90;;;;;;5020233;28;20071;-88
2023/07/10 04:43:34;;;;;;;8.73;4.97;;;23.20;99.90;;;;;;5004077;28;20030;-88
2023/07/10 04:46:03;;;;;;;9.23;4.53;;;23.50;99.90;;;;;;5003863;28;20021;-88
2023/07/10 04:48:31;;;;;;;8.27;4.90;;;23.50;99.90;;;;;;5020163;28;20030;-88
2023/07/10 04:51:02;;;;;;;8.20;5.70;;;23.70;99.90;;;;;;5003692;28;20037;-88
2023/07/10 04:53:31;;;;;;;9.98;6.32;;;24.30;99.90;;;;;;5004045;28;20026;-89
2023/07/10 04:56:00;;;;;;;9.93;6.15;;;25.30;99.90;;;;;;5000233;28;20041;-89
2023/07/10 04:58:55;;;;;;;8.35;7.55;;;26.30;99.90;;;;;;5000404;28;20506;-89
2023/07/10 05:01:28;;;;;;;11.18;9.40;;;27.60;99.90;;;;;;5021019;28;20506;-90
2023/07/10 05:03:55;;;;;;;10.13;9.35;;;28.10;99.90;;;;;;5021027;28;20041;-90
2023/07/10 05:06:22;;;;;;;13.38;10.73;;;28.50;99.90;;;;;;4992035;28;20366;-90
2023/07/10 05:08:51;;;;;;;11.48;10.30;;;28.90;99.90;;;;;;4996933;28;20165;-89
2023/07/10 05:11:17;;;;;;;12.38;11.10;;;29.40;99.90;;;;;;4997238;28;20039;-89
2023/07/10 05:13:43;;;;;;;12.57;11.57;;;29.40;99.90;;;;;;4996895;28;20041;-89
2023/07/10 05:16:10;;;;;;;17.50;12.65;;;29.20;99.90;;;;;;4980895;28;20034;-90
2023/07/10 05:18:37;;;;;;;13.63;12.60;;;29.20;99.90;;;;;;4997124;28;20037;-90
2023/07/10 05:21:04;;;;;;;14.73;13.52;;;29.10;99.90;;;;;;4980474;28;20392;-89
2023/07/10 05:23:30;;;;;;;16.55;15.25;;;29.30;99.90;;;;;;4980264;28;20031;-91
2023/07/10 05:26:05;;;;;;;18.23;15.93;;;29.90;99.90;;;;;;4980772;28;20101;-89
2023/07/10 05:28:34;;;;;;;18.02;16.42;;;30.80;99.90;;;;;;4980674;28;20570;-92
2023/07/10 05:31:03;;;;;;;17.85;16.42;;;31.30;99.90;;;;;;4980693;28;20061;-90
2023/07/10 05:33:30;;;;;;;18.77;16.88;;;31.30;99.90;;;;;;4981380;28;20026;-90
2023/07/10 05:36:00;;;;;;;18.95;17.35;;;30.80;99.90;;;;;;4980366;28;20038;-89
2023/07/10 05:38:29;;;;;;;18.55;17.15;;;31.40;99.90;;;;;;4986084;28;20030;-89
2023/07/10 05:40:56;;;;;;;18.85;17.02;;;31.60;99.90;;;;;;4996441;28;20026;-90
2023/07/10 05:43:23;;;;;;;19.05;17.50;;;30.70;99.90;;;;;;4996369;28;20137;-89
2023/07/10 05:45:51;;;;;;;19.90;18.15;;;30.10;99.90;;;;;;4999857;28;20022;-88
2023/07/10 05:48:18;;;;;;;19.15;17.75;;;29.90;99.90;;;;;;4981761;28;20088;-91
2023/07/10 05:50:47;;;;;;;20.50;18.70;;;30.30;99.90;;;;;;4980739;28;20022;-90
2023/07/10 05:53:14;;;;;;;20.98;18.83;;;30.00;99.90;;;;;;4979640;28;20038;-89
2023/07/10 05:55:47;;;;;;;20.15;18.45;;;31.20;99.90;;;;;;4981286;28;20165;-90
2023/07/10 05:58:16;;;;;;;20.88;19.38;;;31.20;99.90;;;;;;4996115;28;20476;-90
2023/07/10 06:00:43;;;;;;;20.83;19.38;;;31.00;99.90;;;;;;4995979;28;20546;-90
2023/07/10 06:03:10;;;;;;;20.92;19.38;;;31.90;99.90;;;;;;4995992;28;20033;-90
2023/07/10 06:05:36;;;;;;;21.00;19.50;;;32.70;99.90;;;;;;4979653;28;20189;-89
2023/07/10 06:08:03;;;;;;;21.15;19.45;;;32.40;99.90;;;;;;4979608;28;20033;-90
2023/07/10 06:10:29;;;;;;;21.55;19.75;;;32.30;99.90;;;;;;4979540;28;20092;-90
2023/07/10 06:12:56;;;;;;;22.08;20.05;;;32.00;99.90;;;;;;4956592;29;20035;-90
2023/07/10 06:15:25;;;;;;;20.92;19.30;;;32.10;99.90;;;;;;4924572;29;20035;-92
2023/07/10 06:17:51;;;;;;;21.52;19.88;;;32.30;99.90;;;;;;4924449;29;20040;-89
2023/07/10 06:20:18;;;;;;;21.02;19.52;;;32.10;99.90;;;;;;4924835;29;20039;-92
2023/07/10 06:22:44;;;;;;;21.55;20.00;;;32.40;99.90;;;;;;4924656;29;20031;-89
2023/07/10 06:25:11;;;;;;;21.00;19.60;;;32.20;99.90;;;;;;4940197;29;20039;-90
2023/07/10 06:27:37;;;;;;;20.75;19.33;;;32.70;99.90;;;;;;4924364;29;20480;-90
2023/07/10 06:30:04;;;;;;;22.05;20.38;;;32.90;99.90;;;;;;4924825;29;20058;-90
2023/07/10 06:32:32;;;;;;;21.60;20.00;;;33.00;99.90;;;;;;4940515;29;20421;-90
2023/07/10 06:34:59;;;;;;;21.35;19.77;;;32.30;99.90;;;;;;4926842;29;20027;-90
2023/07/10 06:37:25;;;;;;;21.65;20.02;;;32.70;99.90;;;;;;4934641;29;20027;-89
2023/07/10 06:40:10;;;;;;;21.02;19.58;;;32.40;99.90;;;;;;4956783;29;20031;-90
2023/07/10 06:42:37;;;;;;;22.23;19.95;;;32.30;99.90;;;;;;4940986;29;20027;-91
2023/07/10 06:45:06;;;;;;;21.67;19.73;;;32.70;99.90;;;;;;4998651;28;20037;-89
2023/07/10 06:47:38;;;;;;;21.65;20.05;;;32.90;99.90;;;;;;4984240;28;20026;-90
2023/07/10 06:50:05;;;;;;;21.55;19.67;;;32.80;99.90;;;;;;4982839;28;20038;-90
2023/07/10 06:52:32;;;;;;;22.58;20.77;;;32.10;99.90;;;;;;4980067;28;20377;-90
2023/07/10 06:54:58;;;;;;;22.48;20.40;;;33.50;99.90;;;;;;4968312;28;20383;-89
2023/07/10 07:02:54;;;;;;;22.85;21.00;;;33.30;99.90;;;;;;6009137;23;20190;-90
2023/07/10 07:05:21;;;;;;;23.27;21.58;;;33.30;99.90;;;;;;4945567;28;20497;-92
2023/07/10 07:07:47;;;;;;;23.55;21.25;;;34.30;99.90;;;;;;4961719;28;20041;-91
2023/07/10 07:10:14;;;;;;;23.10;21.35;;;35.00;99.90;;;;;;4960421;28;20042;-89
2023/07/10 07:31:34;;;;;;;23.95;22.13;;;34.10;99.90;;;;;;5333183;23;20492;-91
2023/07/10 07:34:02;;;;;;;24.30;22.40;;;34.40;99.90;;;;;;4962066;28;20038;-92
2023/07/10 07:36:32;;;;;;;23.23;21.40;;;34.70;99.90;;;;;;4952554;28;20065;-90
2023/07/10 07:38:58;;;;;;;23.25;21.40;;;34.10;99.90;;;;;;4958732;28;20030;-91
2023/07/10 07:41:24;;;;;;;23.58;21.73;;;34.70;99.90;;;;;;4923795;29;20042;-92
2023/07/10 07:43:51;;;;;;;23.88;22.02;;;34.70;99.90;;;;;;4923924;29;20118;-91
2023/07/10 07:46:17;;;;;;;23.17;21.65;;;33.70;99.90;;;;;;4923622;29;20035;-90
2023/07/10 07:48:43;;;;;;;23.38;21.58;;;33.80;99.90;;;;;;4923422;29;20023;-91
2023/07/10 07:51:10;;;;;;;24.05;22.05;;;33.80;99.90;;;;;;4922888;29;20099;-91
2023/07/10 07:53:40;;;;;;;23.70;22.10;;;34.00;99.90;;;;;;4925439;29;20097;-91
2023/07/10 07:56:06;;;;;;;23.67;21.67;;;35.60;99.90;;;;;;4923310;29;20036;-91
2023/07/10 07:58:33;;;;;;;24.20;22.40;;;35.40;99.90;;;;;;4939120;28;20213;-91
2023/07/10 08:00:59;;;;;;;25.08;23.27;;;36.70;99.90;;;;;;4958244;28;20111;-91
2023/07/10 08:03:26;;;;;;;23.33;21.73;;;37.00;99.90;;;;;;4944795;28;20131;-92
2023/07/10 08:05:53;;;;;;;23.58;21.95;;;35.50;99.90;;;;;;4960570;28;20045;-92
2023/07/10 08:47:53;;;;;;;25.40;23.30;;;36.20;99.90;;;;;;4993555;28;20050;-90
2023/07/10 08:50:29;;;;;;;24.40;22.90;;;36.00;99.90;;;;;;4962782;28;20034;-90
2023/07/10 08:53:21;;;;;;;24.08;22.48;;;37.10;99.90;;;;;;4976690;28;20446;-90
2023/07/10 08:56:08;;;;;;;24.50;22.90;;;36.90;99.90;;;;;;5021977;23;20411;-88
2023/07/10 08:58:38;;;;;;;25.55;23.85;;;35.80;99.90;;;;;;4961426;28;20038;-90
2023/07/10 09:01:31;;;;;;;25.05;23.17;;;35.90;99.90;;;;;;4978663;28;20022;-91
2023/07/10 09:03:59;;;;;;;24.10;22.50;;;36.10;99.90;;;;;;4962141;28;20459;-90
2023/07/10 09:06:39;;;;;;;24.58;22.83;;;35.40;99.90;;;;;;4977842;28;20109;-90
2023/07/10 09:09:31;;;;;;;24.67;22.77;;;36.30;99.90;;;;;;4961884;28;20039;-90
2023/07/10 09:12:03;;;;;;;24.80;23.10;;;35.80;99.90;;;;;;4978618;28;20049;-88
2023/07/10 09:14:45;;;;;;;24.35;22.75;;;34.70;99.90;;;;;;4961788;28;20476;-91
2023/07/10 09:17:27;;;;;;;24.02;22.23;;;34.70;99.90;;;;;;4977496;28;20030;-89
2023/07/10 09:20:03;;;;;;;24.92;23.23;;;36.30;99.90;;;;;;4962494;28;20030;-89
2023/07/10 09:22:36;;;;;;;24.42;22.67;;;35.70;99.90;;;;;;4965150;28;20027;-89
2023/07/10 09:25:12;;;;;;;25.35;22.92;;;36.00;99.90;;;;;;4964437;28;20034;-87
2023/07/10 09:27:43;;;;;;;25.15;22.92;;;34.90;99.90;;;;;;4961324;28;20027;-89
2023/07/10 09:30:37;;;;;;;24.15;22.50;;;34.80;99.90;;;;;;4966457;28;20089;-89
2023/07/10 09:33:08;;;;;;;24.38;22.58;;;34.50;99.90;;;;;;4982485;28;20034;-88
2023/07/10 09:35:46;;;;;;;24.90;22.67;;;35.10;99.90;;;;;;4965314;28;20039;-89
2023/07/10 09:38:22;;;;;;;25.05;23.25;;;35.10;99.90;;;;;;4938391;29;20040;-89
2023/07/10 09:40:51;;;;;;;24.55;22.60;;;34.30;99.90;;;;;;4957294;29;20031;-88
2023/07/10 09:43:20;;;;;;;24.40;22.42;;;33.70;99.90;;;;;;4925233;29;20031;-89
2023/07/10 09:45:51;;;;;;;24.65;22.75;;;32.90;99.90;;;;;;4921899;29;20101;-88
2023/07/10 09:48:24;;;;;;;24.52;22.73;;;32.90;99.90;;;;;;4954711;29;20404;-87
2023/07/10 09:50:52;;;;;;;24.60;22.65;;;32.60;99.90;;;;;;4924203;29;20551;-87
2023/07/10 09:53:36;;;;;;;23.65;22.13;;;32.30;99.90;;;;;;4940076;29;20027;-88
2023/07/10 09:56:02;;;;;;;23.90;22.27;;;32.00;99.90;;;;;;4929010;29;20044;-86
2023/07/10 09:58:28;;;;;;;23.02;21.55;;;32.20;99.90;;;;;;4936098;29;20036;-88
2023/07/10 10:01:00;;;;;;;23.80;22.20;;;32.30;99.90;;;;;;4921838;29;20532;-86
2023/07/10 10:03:33;;;;;;;25.02;22.88;;;32.50;99.90;;;;;;4921178;29;20043;-87
2023/07/10 10:06:01;;;;;;;23.95;22.15;;;32.50;99.90;;;;;;4921461;29;20074;-88
2023/07/10 10:08:31;;;;;;;23.27;21.88;;;32.50;99.90;;;;;;4945237;28;20085;-88
2023/07/10 10:11:08;;;;;;;24.52;22.50;;;32.20;99.90;;;;;;4960569;28;20511;-88
2023/07/10 10:13:47;;;;;;;23.92;21.92;;;31.60;99.90;;;;;;4944714;28;20035;-87
2023/07/10 10:16:36;;;;;;;23.45;21.63;;;31.70;99.90;;;;;;4954634;28;20034;-87
2023/07/10 10:19:19;;;;;;;23.17;21.70;;;32.00;99.90;;;;;;4965011;28;20030;-87
2023/07/10 10:21:48;;;;;;;23.80;22.20;;;32.10;99.90;;;;;;4970396;28;20030;-87
2023/07/10 10:24:18;;;;;;;24.67;22.75;;;32.40;99.90;;;;;;4944129;28;20033;-87
2023/07/10 10:27:11;;;;;;;23.67;22.15;;;32.40;99.90;;;;;;4944281;28;20035;-88
2023/07/10 10:30:17;;;;;;;24.42;22.83;;;32.30;99.90;;;;;;4944406;28;20027;-87
2023/07/10 10:33:22;;;;;;;24.42;22.73;;;32.90;99.90;;;;;;4960377;28;20038;-87
2023/07/10 10:35:52;;;;;;;24.52;22.83;;;32.30;99.90;;;;;;4968627;28;20050;-87
2023/07/10 10:38:35;;;;;;;24.67;23.08;;;32.10;99.90;;;;;;4974280;28;20398;-87
2023/07/10 10:41:26;;;;;;;23.87;22.30;;;32.10;99.90;;;;;;4980037;28;20072;-88
2023/07/10 10:44:21;;;;;;;24.02;22.50;;;32.40;99.90;;;;;;4980056;28;20483;-88
2023/07/10 10:47:25;;;;;;;25.25;23.55;;;32.20;99.90;;;;;;4979791;28;20031;-88
2023/07/10 10:50:07;;;;;;;24.08;22.60;;;32.30;99.90;;;;;;4965131;28;20065;-86
2023/07/10 10:52:56;;;;;;;25.05;23.35;;;32.50;99.90;;;;;;4981980;28;20031;-86
2023/07/10 10:55:44;;;;;;;24.90;22.90;;;32.30;99.90;;;;;;4945603;28;20035;-88
2023/07/10 10:59:01;;;;;;;24.65;23.08;;;32.70;99.90;;;;;;4960259;28;20483;-89
2023/07/10 11:01:51;;;;;;;24.40;23.00;;;32.20;99.90;;;;;;4898710;29;20036;-88
2023/07/10 11:04:40;;;;;;;24.58;23.05;;;32.60;99.90;;;;;;4943505;28;20085;-88
2023/07/10 11:07:19;;;;;;;25.00;23.42;;;32.90;99.90;;;;;;4960086;28;20546;-88
2023/07/10 11:10:14;;;;;;;24.98;23.38;;;33.30;99.90;;;;;;4979534;28;20049;-89
2023/07/10 11:12:40;;;;;;;25.13;23.42;;;32.70;99.90;;;;;;4947331;28;20125;-88
2023/07/10 11:15:18;;;;;;;26.02;24.35;;;32.40;99.90;;;;;;4956839;28;20085;-89
2023/07/10 11:17:50;;;;;;;25.33;23.55;;;32.10;99.90;;;;;;4975582;28;20097;-89
2023/07/10 11:20:18;;;;;;;25.30;23.73;;;32.30;99.90;;;;;;4970573;28;20031;-90
2023/07/10 11:23:04;;;;;;;26.08;24.05;;;32.60;99.90;;;;;;4959385;28;20027;-90
2023/07/10 11:25:37;;;;;;;26.15;23.95;;;32.40;99.90;;;;;;4976793;28;20399;-89
2023/07/10 11:28:20;;;;;;;25.55;23.95;;;32.50;99.90;;;;;;4967673;28;20054;-89
2023/07/10 11:30:49;;;;;;;25.67;23.83;;;33.20;99.90;;;;;;4987917;28;20109;-89
2023/07/10 11:33:17;;;;;;;25.33;23.73;;;33.00;99.90;;;;;;4962011;28;20088;-91
2023/07/10 11:36:17;;;;;;;24.77;23.27;;;33.00;99.90;;;;;;4978731;28;20038;-89
2023/07/10 11:39:05;;;;;;;25.48;23.42;;;33.00;99.90;;;;;;4939593;28;20121;-90
2023/07/10 11:41:36;;;;;;;24.63;23.13;;;32.70;99.90;;;;;;4981486;28;20029;-89
2023/07/10 11:44:33;;;;;;;25.35;23.75;;;32.70;99.90;;;;;;4979570;28;20026;-90
2023/07/10 11:47:04;;;;;;;25.48;23.75;;;32.50;99.90;;;;;;4979037;28;20027;-89
2023/07/10 11:49:45;;;;;;;25.58;23.98;;;32.50;99.90;;;;;;4944611;28;20101;-90
2023/07/10 11:52:25;;;;;;;25.90;24.05;;;32.50;99.90;;;;;;4943953;28;20030;-89
2023/07/10 11:54:52;;;;;;;25.73;23.98;;;32.90;99.90;;;;;;4978108;28;20046;-89
2023/07/10 11:57:30;;;;;;;25.83;24.13;;;33.00;99.90;;;;;;4978193;28;20128;-90
2023/07/10 12:00:18;;;;;;;25.85;24.05;;;33.20;99.90;;;;;;4969612;28;20038;-90
2023/07/10 12:02:55;;;;;;;26.45;24.60;;;32.80;99.90;;;;;;4974425;28;20034;-90
2023/07/10 12:05:29;;;;;;;26.08;24.33;;;32.50;99.90;;;;;;4974905;28;20031;-91
2023/07/10 12:08:02;;;;;;;;;;;32.70;99.90;;;;;;4943077;28;20031;-90
2023/07/10 12:10:32;;;;;;;26.83;24.70;;;33.10;99.90;;;;;;4959598;28;19918;-90
2023/07/10 12:13:00;;;;;;;25.20;23.52;;;32.80;99.90;;;;;;4947444;28;20026;-90
2023/07/10 12:15:27;;;;;;;25.50;23.90;;;33.20;99.90;;;;;;4942592;28;20027;-89
2023/07/10 12:17:55;;;;;;;25.80;24.08;;;33.10;99.90;;;;;;4944999;28;20395;-89
2023/07/10 12:20:32;;;;;;;26.10;24.40;;;33.20;99.90;;;;;;4942680;28;20035;-91
2023/07/10 12:23:09;;;;;;;25.45;23.95;;;32.60;99.90;;;;;;4942436;28;20066;-90
2023/07/10 12:25:36;;;;;;;26.30;24.50;;;32.60;99.90;;;;;;4967220;28;20105;-90
2023/07/10 12:28:11;;;;;;;26.70;24.80;;;32.50;99.90;;;;;;4958769;28;20396;-89
2023/07/10 12:30:38;;;;;;;26.15;24.45;;;32.70;99.90;;;;;;4974573;28;20042;-92
2023/07/10 16:12:43;;;;;;;26.92;25.27;;;31.30;99.90;;;;;;5331696;23;20053;-90
2023/07/10 16:15:18;;;;;;;26.45;24.95;;;31.40;99.90;;;;;;4981170;28;20083;-91
2023/07/10 16:17:50;;;;;;;26.75;25.25;;;31.40;99.90;;;;;;4981216;28;20114;-90
2023/07/10 16:20:22;;;;;;;26.65;24.98;;;31.20;99.90;;;;;;4980950;28;20034;-90
2023/07/10 16:23:02;;;;;;;26.88;25.30;;;31.00;99.90;;;;;;4996915;28;20599;-90
2023/07/10 16:25:30;;;;;;;26.58;24.95;;;30.80;99.90;;;;;;4980887;28;20080;-90
2023/07/10 16:27:57;;;;;;;26.70;25.20;;;30.80;99.90;;;;;;4980832;28;20022;-89
2023/07/10 16:30:26;;;;;;;27.27;25.42;;;30.80;99.90;;;;;;4998425;28;20033;-91
2023/07/10 16:32:56;;;;;;;27.05;25.45;;;30.70;99.90;;;;;;4985009;28;20026;-91
2023/07/10 16:35:24;;;;;;;27.10;25.30;;;30.60;99.90;;;;;;4984780;28;20030;-91
2023/07/10 16:37:52;;;;;;;26.45;24.80;;;30.60;99.90;;;;;;5000995;28;20052;-92
2023/07/10 16:40:23;;;;;;;26.08;24.50;;;30.60;99.80;;;;;;4984683;28;20108;-90
2023/07/10 16:42:56;;;;;;;26.88;25.08;;;30.50;99.50;;;;;;5000957;28;20042;-90
2023/07/10 16:45:30;;;;;;;27.13;25.42;;;30.40;99.20;;;;;;5000922;28;20034;-89
2023/07/10 16:47:57;;;;;;;27.33;25.52;;;30.40;99.40;;;;;;5000811;28;20391;-89
2023/07/10 16:50:24;;;;;;;27.50;25.85;;;30.30;98.90;;;;;;4984370;28;20037;-89
2023/07/10 16:52:52;;;;;;;26.17;24.77;;;30.30;99.20;;;;;;4984848;28;20026;-90
2023/07/10 16:55:22;;;;;;;27.40;25.50;;;30.30;99.60;;;;;;4984655;28;20501;-88
2023/07/10 16:57:51;;;;;;;26.38;24.67;;;30.20;99.40;;;;;;5000556;28;20045;-88
2023/07/10 17:00:21;;;;;;;27.20;25.50;;;30.00;99.50;;;;;;4984230;28;20057;-89
2023/07/10 17:02:52;;;;;;;27.08;25.02;;;30.00;99.10;;;;;;5009295;28;20030;-89
2023/07/10 17:05:20;;;;;;;26.90;25.23;;;29.90;99.30;;;;;;5017309;28;20080;-89
2023/07/10 17:07:47;;;;;;;26.80;25.00;;;29.90;99.30;;;;;;5000248;28;20026;-90
2023/07/10 17:10:14;;;;;;;26.38;24.83;;;29.80;98.90;;;;;;5005446;28;20030;-89
2023/07/10 17:12:42;;;;;;;26.13;24.60;;;29.70;98.40;;;;;;4981263;28;20498;-88
2023/07/10 17:15:17;;;;;;;26.25;24.55;;;29.70;98.00;;;;;;4980926;28;20034;-89
2023/07/10 17:17:43;;;;;;;26.23;24.38;;;29.60;98.60;;;;;;4964716;28;20035;-90
2023/07/10 17:20:16;;;;;;;27.65;25.48;;;29.50;99.20;;;;;;4964683;28;20117;-90
2023/07/10 17:22:45;;;;;;;26.77;25.13;;;29.50;99.50;;;;;;4964711;28;20038;-90
2023/07/10 17:25:16;;;;;;;26.90;25.15;;;29.40;99.60;;;;;;4964624;28;20034;-89
2023/07/10 17:27:44;;;;;;;26.10;24.60;;;29.30;99.60;;;;;;4959906;28;20035;-89
2023/07/10 17:30:18;;;;;;;27.17;25.27;;;29.30;99.90;;;;;;4961077;28;20034;-90
2023/07/10 17:32:46;;;;;;;27.58;25.52;;;29.30;99.90;;;;;;4961287;28;20027;-90
2023/07/10 17:35:21;;;;;;;26.45;24.95;;;29.10;99.90;;;;;;4977167;28;20023;-90
2023/07/10 17:37:50;;;;;;;27.63;25.52;;;29.00;99.90;;;;;;4960973;28;20034;-90
2023/07/10 17:40:17;;;;;;;26.40;24.67;;;28.90;99.90;;;;;;4961010;28;20031;-89